Airfield :
LOGIN :

Register | Disclaimer

   EN    FR    IT 

 










Legend :    VFR   Marginal VFR   IFR   Intensive IFR   Very Intensive IFR
Visi :
Ceiling :
>= 8 km
>= 3000ft
5 to 8 km
1000 to 3000 ft
1500m to 5 km
500 to 1000 ft
800 to 1500m
200 to 500 ft
< 800m
< 200 ft
Symbols :   Thunderstorms  Fog  Heavy snow  Heavy precipitations  Wind > 20 kt
SIGMETs :     Misc.  Thunderstorms  Icing  Turbulence  Mountain Waves  Volcanic Ashes






- Airport Elevation : 56 ft
- IATA code : BZR


LFMU - Beziers / Vias

CURRENT METAR :
  • 150530Z AUTO 27016KT 9999 ///TCU 15/11 Q1010 TEMPO 28015G25KT TSRA SCT010 BKN040CB

EXPIRED METARs :
  • 150500Z AUTO 26010KT CAVOK 16/10 Q1010 TEMPO 28015G25KT TSRA SCT010 BKN040CB
  • 150430Z AUTO 27010KT CAVOK 16/11 Q1010 TEMPO 28015G25KT TSRA SCT010 BKN040CB
  • 150400Z AUTO 28009KT CAVOK 16/12 Q1009 TEMPO 28015G25KT TSRA SCT010 BKN040CB
  • 150330Z AUTO 28009KT 9999 ///CB 16/12 Q1009 TEMPO 28015G25KT TSRA
  • 150300Z AUTO 29008KT 9999 ///CB 17/13 Q1008 TEMPO 28015G25KT TSRA

TAF TAF LFMU
Valid from the 15 at 03:00 until the 16 at 03:00 UTC


150200Z 1503/1603 28012KT 9999 BKN040
PROB30
TEMPO 1503/1508 28015G25KT TSRA SCT010 BKN040CB
BECMG 1509/1512 28015G25KT NSW NSC
BECMG 1518/1520 25005KT
ATIS : +33 4 67 90 88 88



MET'MAP, your aeronautical weather chart ! - Copyright ORBIFLY December 2007 - Disclaimer

ORBIFLY MET'MAP TEAM :

Programming & Development : Alexandra Zaïnal
Concept & Development : Baudouin d'Aumeries
Co-Development & Prog : Marc-Olivier Méhu
Technical & hardware support : Manuel Goepfert

Contact : metmap@orbifly.com




SOURCES & CREDITS :

   NOAA